Terminal Aerodrome Forecast
Issued by NWS Pueblo, CO

Home | Current Version | Previous Version | Text Only | Print | Product List | Glossary On
Versions: 1 2 3 4 5 6 7 8 9 10 11 12 13 14 15 16 17 18 19 20 21 22 23 24 25 26 27 28 29 30 31 32 33 34 35 36 37 38 39 40
000
FTUS45 KPUB 291138
TAFALS
TAF
KALS 291138Z 2912/3012 11015G25KT P6SM SCT030 BKN070
      TEMPO 2912/2916 2SM -SN BKN020
     FM291600 06014G24KT 3SM -SN SCT015 OVC020
     FM292200 03012KT P6SM SCT030 BKN050
     FM300200 02010KT P6SM SCT050 BKN100=

USA.gov is the U.S. government's official web portal to all federal, state and local government web resources and services.